LTBR/YEI METAR and TAF weather

Enter ICAO airport designator
Station Type Date Time Source
LTBR METAR 2021/05/10 02:20 UTC NOAA

LTBR 100220Z 10002KT CAVOK 03/02 Q1023 NOSIG


Station Type Date Time Source
LTBR Decoded METAR 2021/05/10 02:20 UTC NOAA

Bursa / Yenisehir, Mil-Civ, Turkey (LTBR) 40-15-19N 029-33-45E
May 09, 2021 - 10:20 PM EDT / 2021.05.10 0220 UTC
Wind: from the E (100 degrees) at 2 MPH (2 KT):0
Visibility: greater than 7 mile(s):0
Temperature: 37 F (3 C)
Dew Point: 35 F (2 C)
Relative Humidity: 93%
Pressure (altimeter): 30.21 in. Hg (1023 hPa)
ob: LTBR 100220Z 10002KT CAVOK 03/02 Q1023 NOSIG
cycle: 2

Station Type Date Time Source
LTBR TAF 2021/05/09 18:03 UTC NOAA

TAF LTBR 091640Z 0918/1018 VRB02KT CAVOK PROB30
TEMPO 1002/1005 4000 BR
BECMG 1005/1008 07013KT
BECMG 1010/1012 01015KT PROB40
TEMPO 1012/1016 36015G25KT
BECMG 1016/1018 01005KT

Example: see airport list